sensor_id;sensor_type;location;lat;lon;timestamp;P1;durP1;ratioP1;P2;durP2;ratioP2
45338;SDS011;31071;51.478;5.710;2022-09-28T00:02:05;15.30;;;9.63;;
45338;SDS011;31071;51.478;5.710;2022-09-28T00:04:31;17.48;;;10.18;;
45338;SDS011;31071;51.478;5.710;2022-09-28T00:07:00;16.60;;;11.77;;
45338;SDS011;31071;51.478;5.710;2022-09-28T00:09:25;20.20;;;11.38;;
45338;SDS011;31071;51.478;5.710;2022-09-28T00:11:51;20.48;;;11.93;;
45338;SDS011;31071;51.478;5.710;2022-09-28T00:14:17;19.70;;;11.90;;
45338;SDS011;31071;51.478;5.710;2022-09-28T00:16:44;18.67;;;12.05;;
45338;SDS011;31071;51.478;5.710;2022-09-28T00:19:10;19.52;;;12.55;;
45338;SDS011;31071;51.478;5.710;2022-09-28T00:21:37;19.75;;;12.45;;
45338;SDS011;31071;51.478;5.710;2022-09-28T00:24:04;22.02;;;13.07;;
45338;SDS011;31071;51.478;5.710;2022-09-28T00:26:40;20.35;;;13.27;;
45338;SDS011;31071;51.478;5.710;2022-09-28T00:29:26;22.08;;;13.18;;
45338;SDS011;31071;51.478;5.710;2022-09-28T00:31:54;19.88;;;14.38;;
45338;SDS011;31071;51.478;5.710;2022-09-28T00:34:24;27.23;;;15.45;;
45338;SDS011;31071;51.478;5.710;2022-09-28T00:36:51;21.40;;;14.00;;
45338;SDS011;31071;51.478;5.710;2022-09-28T00:39:16;20.27;;;14.30;;
45338;SDS011;31071;51.478;5.710;2022-09-28T00:41:42;21.20;;;13.68;;
45338;SDS011;31071;51.478;5.710;2022-09-28T00:46:46;21.25;;;13.57;;
45338;SDS011;31071;51.478;5.710;2022-09-28T00:49:13;20.90;;;13.60;;
45338;SDS011;31071;51.478;5.710;2022-09-28T00:51:42;20.92;;;13.63;;
45338;SDS011;31071;51.478;5.710;2022-09-28T00:54:10;21.02;;;14.55;;
45338;SDS011;31071;51.478;5.710;2022-09-28T00:56:36;22.08;;;14.57;;
45338;SDS011;31071;51.478;5.710;2022-09-28T00:59:05;22.45;;;15.88;;
45338;SDS011;31071;51.478;5.710;2022-09-28T01:01:32;20.27;;;14.63;;
45338;SDS011;31071;51.478;5.710;2022-09-28T01:03:58;18.05;;;14.02;;
45338;SDS011;31071;51.478;5.710;2022-09-28T01:06:26;25.77;;;14.48;;
45338;SDS011;31071;51.478;5.710;2022-09-28T01:08:57;23.88;;;14.05;;
45338;SDS011;31071;51.478;5.710;2022-09-28T01:11:26;21.45;;;13.75;;
45338;SDS011;31071;51.478;5.710;2022-09-28T01:13:53;21.30;;;14.48;;
45338;SDS011;31071;51.478;5.710;2022-09-28T01:16:30;21.92;;;14.35;;
45338;SDS011;31071;51.478;5.710;2022-09-28T01:19:45;26.13;;;14.40;;
45338;SDS011;31071;51.478;5.710;2022-09-28T01:28:08;23.25;;;15.32;;
45338;SDS011;31071;51.478;5.710;2022-09-28T01:30:42;20.70;;;15.80;;
45338;SDS011;31071;51.478;5.710;2022-09-28T01:33:23;21.67;;;15.10;;
45338;SDS011;31071;51.478;5.710;2022-09-28T01:35:54;19.08;;;15.75;;
45338;SDS011;31071;51.478;5.710;2022-09-28T01:39:00;24.88;;;15.40;;
45338;SDS011;31071;51.478;5.710;2022-09-28T01:41:25;24.50;;;16.92;;
45338;SDS011;31071;51.478;5.710;2022-09-28T01:43:55;25.92;;;17.13;;
45338;SDS011;31071;51.478;5.710;2022-09-28T01:46:25;27.52;;;16.55;;
45338;SDS011;31071;51.478;5.710;2022-09-28T01:48:55;23.55;;;15.88;;
45338;SDS011;31071;51.478;5.710;2022-09-28T01:51:33;22.13;;;15.75;;
45338;SDS011;31071;51.478;5.710;2022-09-28T01:54:14;26.15;;;16.98;;
45338;SDS011;31071;51.478;5.710;2022-09-28T01:56:50;21.15;;;16.08;;
45338;SDS011;31071;51.478;5.710;2022-09-28T01:59:22;27.95;;;17.60;;
45338;SDS011;31071;51.478;5.710;2022-09-28T02:01:51;31.27;;;18.23;;
45338;SDS011;31071;51.478;5.710;2022-09-28T02:04:23;28.70;;;18.10;;
45338;SDS011;31071;51.478;5.710;2022-09-28T02:07:00;27.58;;;19.25;;
45338;SDS011;31071;51.478;5.710;2022-09-28T02:09:32;30.52;;;20.80;;
45338;SDS011;31071;51.478;5.710;2022-09-28T02:12:12;31.08;;;19.70;;
45338;SDS011;31071;51.478;5.710;2022-09-28T02:14:44;29.08;;;19.98;;
45338;SDS011;31071;51.478;5.710;2022-09-28T02:17:14;31.95;;;20.15;;
45338;SDS011;31071;51.478;5.710;2022-09-28T02:19:40;34.45;;;20.70;;
45338;SDS011;31071;51.478;5.710;2022-09-28T02:24:52;32.13;;;22.58;;
45338;SDS011;31071;51.478;5.710;2022-09-28T02:27:57;35.65;;;23.95;;
45338;SDS011;31071;51.478;5.710;2022-09-28T02:30:15;37.67;;;24.80;;
45338;SDS011;31071;51.478;5.710;2022-09-28T02:32:44;40.35;;;26.48;;
45338;SDS011;31071;51.478;5.710;2022-09-28T02:35:14;43.53;;;26.02;;
45338;SDS011;31071;51.478;5.710;2022-09-28T02:37:42;38.40;;;25.08;;
45338;SDS011;31071;51.478;5.710;2022-09-28T02:40:18;40.15;;;27.38;;
45338;SDS011;31071;51.478;5.710;2022-09-28T02:51:02;38.55;;;26.92;;
45338;SDS011;31071;51.478;5.710;2022-09-28T02:56:28;40.22;;;26.10;;
45338;SDS011;31071;51.478;5.710;2022-09-28T03:02:13;38.15;;;23.50;;
45338;SDS011;31071;51.478;5.710;2022-09-28T03:07:24;34.53;;;22.13;;
45338;SDS011;31071;51.478;5.710;2022-09-28T03:10:02;28.98;;;20.55;;
45338;SDS011;31071;51.478;5.710;2022-09-28T03:12:37;34.22;;;20.63;;
45338;SDS011;31071;51.478;5.710;2022-09-28T03:17:37;35.60;;;19.95;;
45338;SDS011;31071;51.478;5.710;2022-09-28T03:20:03;27.55;;;18.25;;
45338;SDS011;31071;51.478;5.710;2022-09-28T03:22:29;30.77;;;19.27;;
45338;SDS011;31071;51.478;5.710;2022-09-28T03:24:55;29.02;;;18.60;;
45338;SDS011;31071;51.478;5.710;2022-09-28T03:27:20;28.25;;;18.10;;
45338;SDS011;31071;51.478;5.710;2022-09-28T03:29:46;27.25;;;16.92;;
45338;SDS011;31071;51.478;5.710;2022-09-28T03:32:12;24.65;;;16.70;;
45338;SDS011;31071;51.478;5.710;2022-09-28T03:34:37;25.50;;;17.02;;
45338;SDS011;31071;51.478;5.710;2022-09-28T03:37:03;29.50;;;16.48;;
45338;SDS011;31071;51.478;5.710;2022-09-28T03:39:28;25.50;;;15.80;;
45338;SDS011;31071;51.478;5.710;2022-09-28T03:41:55;21.15;;;15.52;;
45338;SDS011;31071;51.478;5.710;2022-09-28T03:44:24;25.27;;;15.32;;
45338;SDS011;31071;51.478;5.710;2022-09-28T03:46:49;24.80;;;13.70;;
45338;SDS011;31071;51.478;5.710;2022-09-28T03:49:15;18.42;;;14.05;;
45338;SDS011;31071;51.478;5.710;2022-09-28T03:51:40;18.42;;;13.57;;
45338;SDS011;31071;51.478;5.710;2022-09-28T03:54:06;19.98;;;13.48;;
45338;SDS011;31071;51.478;5.710;2022-09-28T03:56:31;20.00;;;13.75;;
45338;SDS011;31071;51.478;5.710;2022-09-28T03:58:57;19.33;;;12.57;;
45338;SDS011;31071;51.478;5.710;2022-09-28T04:01:22;21.27;;;12.38;;
45338;SDS011;31071;51.478;5.710;2022-09-28T04:03:51;16.55;;;12.45;;
45338;SDS011;31071;51.478;5.710;2022-09-28T04:06:19;17.73;;;12.27;;
45338;SDS011;31071;51.478;5.710;2022-09-28T04:08:44;17.83;;;10.95;;
45338;SDS011;31071;51.478;5.710;2022-09-28T04:11:10;16.85;;;11.98;;
45338;SDS011;31071;51.478;5.710;2022-09-28T04:13:35;16.17;;;10.63;;
45338;SDS011;31071;51.478;5.710;2022-09-28T04:16:01;16.63;;;11.63;;
45338;SDS011;31071;51.478;5.710;2022-09-28T04:18:27;14.15;;;10.50;;
45338;SDS011;31071;51.478;5.710;2022-09-28T04:20:57;17.92;;;10.25;;
45338;SDS011;31071;51.478;5.710;2022-09-28T04:23:23;21.70;;;10.68;;
45338;SDS011;31071;51.478;5.710;2022-09-28T04:25:51;13.18;;;9.65;;
45338;SDS011;31071;51.478;5.710;2022-09-28T04:28:17;16.77;;;10.07;;
45338;SDS011;31071;51.478;5.710;2022-09-28T04:31:01;13.00;;;8.68;;
45338;SDS011;31071;51.478;5.710;2022-09-28T04:33:27;13.82;;;9.52;;
45338;SDS011;31071;51.478;5.710;2022-09-28T04:35:53;13.90;;;8.30;;
45338;SDS011;31071;51.478;5.710;2022-09-28T04:38:18;13.63;;;8.35;;
45338;SDS011;31071;51.478;5.710;2022-09-28T04:40:47;11.50;;;8.13;;
45338;SDS011;31071;51.478;5.710;2022-09-28T04:43:13;12.45;;;8.50;;
45338;SDS011;31071;51.478;5.710;2022-09-28T04:45:38;13.35;;;8.18;;
45338;SDS011;31071;51.478;5.710;2022-09-28T04:48:05;13.43;;;8.25;;
45338;SDS011;31071;51.478;5.710;2022-09-28T04:50:31;15.68;;;8.02;;
45338;SDS011;31071;51.478;5.710;2022-09-28T04:52:58;13.80;;;7.80;;
45338;SDS011;31071;51.478;5.710;2022-09-28T04:55:25;13.57;;;8.55;;
45338;SDS011;31071;51.478;5.710;2022-09-28T04:57:52;10.82;;;7.78;;
45338;SDS011;31071;51.478;5.710;2022-09-28T05:00:18;15.20;;;8.05;;
45338;SDS011;31071;51.478;5.710;2022-09-28T05:02:44;12.82;;;7.47;;
45338;SDS011;31071;51.478;5.710;2022-09-28T05:05:09;12.48;;;7.13;;
45338;SDS011;31071;51.478;5.710;2022-09-28T05:07:35;9.13;;;7.18;;
45338;SDS011;31071;51.478;5.710;2022-09-28T05:10:00;11.35;;;7.90;;
45338;SDS011;31071;51.478;5.710;2022-09-28T05:12:26;14.93;;;8.02;;
45338;SDS011;31071;51.478;5.710;2022-09-28T05:14:51;10.43;;;7.63;;
45338;SDS011;31071;51.478;5.710;2022-09-28T05:17:17;11.73;;;8.15;;
45338;SDS011;31071;51.478;5.710;2022-09-28T05:19:42;13.93;;;8.55;;
45338;SDS011;31071;51.478;5.710;2022-09-28T05:22:08;16.00;;;9.05;;
45338;SDS011;31071;51.478;5.710;2022-09-28T05:24:38;15.90;;;8.95;;
45338;SDS011;31071;51.478;5.710;2022-09-28T05:27:04;17.30;;;10.27;;
45338;SDS011;31071;51.478;5.710;2022-09-28T05:29:30;13.13;;;9.52;;
45338;SDS011;31071;51.478;5.710;2022-09-28T05:31:55;15.80;;;10.85;;
45338;SDS011;31071;51.478;5.710;2022-09-28T05:34:21;15.93;;;10.68;;
45338;SDS011;31071;51.478;5.710;2022-09-28T05:36:46;17.98;;;11.45;;
45338;SDS011;31071;51.478;5.710;2022-09-28T05:39:12;23.65;;;12.27;;
45338;SDS011;31071;51.478;5.710;2022-09-28T05:41:37;16.00;;;10.65;;
45338;SDS011;31071;51.478;5.710;2022-09-28T05:44:03;18.35;;;11.25;;
45338;SDS011;31071;51.478;5.710;2022-09-28T05:46:29;17.17;;;11.73;;
45338;SDS011;31071;51.478;5.710;2022-09-28T05:48:54;15.80;;;11.10;;
45338;SDS011;31071;51.478;5.710;2022-09-28T05:51:20;17.77;;;11.15;;
45338;SDS011;31071;51.478;5.710;2022-09-28T05:53:45;15.00;;;10.60;;
45338;SDS011;31071;51.478;5.710;2022-09-28T05:56:11;19.80;;;12.02;;
45338;SDS011;31071;51.478;5.710;2022-09-28T05:58:36;16.33;;;11.25;;
45338;SDS011;31071;51.478;5.710;2022-09-28T06:01:02;17.17;;;11.65;;
45338;SDS011;31071;51.478;5.710;2022-09-28T06:03:28;16.98;;;10.90;;
45338;SDS011;31071;51.478;5.710;2022-09-28T06:05:53;16.05;;;11.02;;
45338;SDS011;31071;51.478;5.710;2022-09-28T06:08:19;17.65;;;11.70;;
45338;SDS011;31071;51.478;5.710;2022-09-28T06:10:44;16.98;;;11.52;;
45338;SDS011;31071;51.478;5.710;2022-09-28T06:13:10;21.58;;;12.95;;
45338;SDS011;31071;51.478;5.710;2022-09-28T06:15:36;19.33;;;12.70;;
45338;SDS011;31071;51.478;5.710;2022-09-28T06:18:06;21.33;;;13.70;;
45338;SDS011;31071;51.478;5.710;2022-09-28T06:20:36;21.43;;;13.73;;
45338;SDS011;31071;51.478;5.710;2022-09-28T06:23:03;20.88;;;13.02;;
45338;SDS011;31071;51.478;5.710;2022-09-28T06:25:29;22.63;;;13.75;;
45338;SDS011;31071;51.478;5.710;2022-09-28T06:28:01;18.77;;;13.82;;
45338;SDS011;31071;51.478;5.710;2022-09-28T06:30:29;16.92;;;13.70;;
45338;SDS011;31071;51.478;5.710;2022-09-28T06:32:58;20.98;;;14.93;;
45338;SDS011;31071;51.478;5.710;2022-09-28T06:35:26;20.63;;;14.25;;
45338;SDS011;31071;51.478;5.710;2022-09-28T06:37:53;21.92;;;14.20;;
45338;SDS011;31071;51.478;5.710;2022-09-28T06:40:18;19.10;;;14.43;;
45338;SDS011;31071;51.478;5.710;2022-09-28T06:45:24;20.77;;;14.63;;
45338;SDS011;31071;51.478;5.710;2022-09-28T06:47:53;19.42;;;13.45;;
45338;SDS011;31071;51.478;5.710;2022-09-28T06:50:20;22.30;;;15.18;;
45338;SDS011;31071;51.478;5.710;2022-09-28T06:52:48;22.83;;;15.43;;
45338;SDS011;31071;51.478;5.710;2022-09-28T06:55:15;23.25;;;15.45;;
45338;SDS011;31071;51.478;5.710;2022-09-28T06:57:42;27.50;;;15.88;;
45338;SDS011;31071;51.478;5.710;2022-09-28T07:00:07;24.00;;;16.15;;
45338;SDS011;31071;51.478;5.710;2022-09-28T07:02:34;26.35;;;16.58;;
45338;SDS011;31071;51.478;5.710;2022-09-28T07:05:00;23.48;;;15.50;;
45338;SDS011;31071;51.478;5.710;2022-09-28T07:07:26;27.83;;;17.13;;
45338;SDS011;31071;51.478;5.710;2022-09-28T07:09:52;27.60;;;16.75;;
45338;SDS011;31071;51.478;5.710;2022-09-28T07:12:19;23.88;;;16.55;;
45338;SDS011;31071;51.478;5.710;2022-09-28T07:14:45;25.55;;;15.65;;
45338;SDS011;31071;51.478;5.710;2022-09-28T07:17:11;20.58;;;15.38;;
45338;SDS011;31071;51.478;5.710;2022-09-28T07:19:37;25.52;;;15.50;;
45338;SDS011;31071;51.478;5.710;2022-09-28T07:22:02;25.83;;;15.60;;
45338;SDS011;31071;51.478;5.710;2022-09-28T07:24:28;23.80;;;15.55;;
45338;SDS011;31071;51.478;5.710;2022-09-28T07:26:54;24.83;;;15.15;;
45338;SDS011;31071;51.478;5.710;2022-09-28T07:29:20;21.52;;;14.00;;
45338;SDS011;31071;51.478;5.710;2022-09-28T07:31:45;19.25;;;13.32;;
45338;SDS011;31071;51.478;5.710;2022-09-28T07:34:11;21.50;;;13.18;;
45338;SDS011;31071;51.478;5.710;2022-09-28T07:36:36;22.27;;;13.57;;
45338;SDS011;31071;51.478;5.710;2022-09-28T07:39:03;19.98;;;14.43;;
45338;SDS011;31071;51.478;5.710;2022-09-28T07:41:29;20.65;;;13.82;;
45338;SDS011;31071;51.478;5.710;2022-09-28T07:43:58;16.08;;;12.82;;
45338;SDS011;31071;51.478;5.710;2022-09-28T07:46:29;19.88;;;13.77;;
45338;SDS011;31071;51.478;5.710;2022-09-28T07:48:55;17.40;;;12.38;;
45338;SDS011;31071;51.478;5.710;2022-09-28T07:51:21;17.10;;;12.75;;
45338;SDS011;31071;51.478;5.710;2022-09-28T07:53:46;22.10;;;12.85;;
45338;SDS011;31071;51.478;5.710;2022-09-28T07:56:13;18.63;;;12.15;;
45338;SDS011;31071;51.478;5.710;2022-09-28T07:58:41;21.90;;;12.68;;
45338;SDS011;31071;51.478;5.710;2022-09-28T08:01:08;16.65;;;11.55;;
45338;SDS011;31071;51.478;5.710;2022-09-28T08:03:35;20.33;;;11.43;;
45338;SDS011;31071;51.478;5.710;2022-09-28T08:06:03;15.93;;;10.65;;
45338;SDS011;31071;51.478;5.710;2022-09-28T08:08:32;14.55;;;9.25;;
45338;SDS011;31071;51.478;5.710;2022-09-28T08:10:59;14.95;;;9.48;;
45338;SDS011;31071;51.478;5.710;2022-09-28T08:13:25;14.82;;;8.75;;
45338;SDS011;31071;51.478;5.710;2022-09-28T08:15:51;13.63;;;8.27;;
45338;SDS011;31071;51.478;5.710;2022-09-28T08:18:17;16.38;;;8.48;;
45338;SDS011;31071;51.478;5.710;2022-09-28T08:20:43;10.75;;;6.93;;
45338;SDS011;31071;51.478;5.710;2022-09-28T08:23:28;11.68;;;7.75;;
45338;SDS011;31071;51.478;5.710;2022-09-28T08:25:53;9.18;;;6.25;;
45338;SDS011;31071;51.478;5.710;2022-09-28T08:28:19;10.55;;;5.60;;
45338;SDS011;31071;51.478;5.710;2022-09-28T08:30:46;6.45;;;4.95;;
45338;SDS011;31071;51.478;5.710;2022-09-28T08:33:13;6.97;;;4.30;;
45338;SDS011;31071;51.478;5.710;2022-09-28T08:35:39;6.45;;;3.83;;
45338;SDS011;31071;51.478;5.710;2022-09-28T08:38:06;5.63;;;3.53;;
45338;SDS011;31071;51.478;5.710;2022-09-28T08:40:34;13.73;;;4.20;;
45338;SDS011;31071;51.478;5.710;2022-09-28T08:43:18;11.38;;;3.72;;
45338;SDS011;31071;51.478;5.710;2022-09-28T08:45:52;6.75;;;3.83;;
45338;SDS011;31071;51.478;5.710;2022-09-28T08:51:06;4.47;;;3.30;;
45338;SDS011;31071;51.478;5.710;2022-09-28T08:53:41;6.72;;;3.83;;
45338;SDS011;31071;51.478;5.710;2022-09-28T08:58:57;8.57;;;4.05;;
45338;SDS011;31071;51.478;5.710;2022-09-28T09:01:27;7.13;;;4.38;;
45338;SDS011;31071;51.478;5.710;2022-09-28T09:03:58;7.25;;;3.92;;
45338;SDS011;31071;51.478;5.710;2022-09-28T09:09:18;6.18;;;3.80;;
45338;SDS011;31071;51.478;5.710;2022-09-28T09:27:56;5.97;;;3.67;;
45338;SDS011;31071;51.478;5.710;2022-09-28T09:39:28;5.85;;;3.40;;
45338;SDS011;31071;51.478;5.710;2022-09-28T09:42:26;6.10;;;3.20;;
45338;SDS011;31071;51.478;5.710;2022-09-28T09:55:44;4.47;;;3.22;;
45338;SDS011;31071;51.478;5.710;2022-09-28T09:58:13;8.23;;;3.72;;
45338;SDS011;31071;51.478;5.710;2022-09-28T10:00:46;3.58;;;3.22;;
45338;SDS011;31071;51.478;5.710;2022-09-28T10:03:25;4.38;;;3.00;;
45338;SDS011;31071;51.478;5.710;2022-09-28T10:06:02;4.82;;;3.30;;
45338;SDS011;31071;51.478;5.710;2022-09-28T10:09:19;4.05;;;3.10;;
45338;SDS011;31071;51.478;5.710;2022-09-28T10:11:38;4.90;;;3.00;;
45338;SDS011;31071;51.478;5.710;2022-09-28T10:14:10;15.20;;;4.35;;
45338;SDS011;31071;51.478;5.710;2022-09-28T10:16:40;6.13;;;3.65;;
45338;SDS011;31071;51.478;5.710;2022-09-28T10:19:09;4.15;;;3.25;;
45338;SDS011;31071;51.478;5.710;2022-09-28T10:21:37;4.13;;;3.17;;
45338;SDS011;31071;51.478;5.710;2022-09-28T10:24:05;7.13;;;3.38;;
45338;SDS011;31071;51.478;5.710;2022-09-28T10:26:43;3.42;;;3.00;;
45338;SDS011;31071;51.478;5.710;2022-09-28T10:29:23;6.38;;;2.80;;
45338;SDS011;31071;51.478;5.710;2022-09-28T10:31:51;3.60;;;2.50;;
45338;SDS011;31071;51.478;5.710;2022-09-28T10:34:18;3.88;;;3.05;;
45338;SDS011;31071;51.478;5.710;2022-09-28T10:36:53;8.13;;;3.00;;
45338;SDS011;31071;51.478;5.710;2022-09-28T10:42:07;15.60;;;4.00;;
45338;SDS011;31071;51.478;5.710;2022-09-28T10:47:36;5.05;;;2.85;;
45338;SDS011;31071;51.478;5.710;2022-09-28T10:50:02;4.28;;;2.97;;
45338;SDS011;31071;51.478;5.710;2022-09-28T10:52:39;3.45;;;2.50;;
45338;SDS011;31071;51.478;5.710;2022-09-28T10:57:56;5.60;;;2.50;;
45338;SDS011;31071;51.478;5.710;2022-09-28T11:03:08;7.03;;;2.07;;
45338;SDS011;31071;51.478;5.710;2022-09-28T11:05:54;3.58;;;2.10;;
45338;SDS011;31071;51.478;5.710;2022-09-28T11:08:37;9.48;;;2.72;;
45338;SDS011;31071;51.478;5.710;2022-09-28T11:11:07;3.08;;;2.13;;
45338;SDS011;31071;51.478;5.710;2022-09-28T11:16:28;2.88;;;2.30;;
45338;SDS011;31071;51.478;5.710;2022-09-28T11:19:02;18.55;;;3.55;;
45338;SDS011;31071;51.478;5.710;2022-09-28T11:21:39;8.17;;;2.20;;
45338;SDS011;31071;51.478;5.710;2022-09-28T11:26:48;4.60;;;1.50;;
45338;SDS011;31071;51.478;5.710;2022-09-28T11:29:29;5.72;;;2.05;;
45338;SDS011;31071;51.478;5.710;2022-09-28T11:32:04;5.30;;;1.90;;
45338;SDS011;31071;51.478;5.710;2022-09-28T11:34:31;2.25;;;1.63;;
45338;SDS011;31071;51.478;5.710;2022-09-28T11:37:21;3.13;;;1.75;;
45338;SDS011;31071;51.478;5.710;2022-09-28T11:40:08;4.43;;;2.08;;
45338;SDS011;31071;51.478;5.710;2022-09-28T11:42:50;6.45;;;2.53;;
45338;SDS011;31071;51.478;5.710;2022-09-28T11:45:37;4.57;;;2.20;;
45338;SDS011;31071;51.478;5.710;2022-09-28T11:48:29;6.90;;;2.40;;
45338;SDS011;31071;51.478;5.710;2022-09-28T11:51:06;3.80;;;2.30;;
45338;SDS011;31071;51.478;5.710;2022-09-28T11:53:41;4.78;;;2.40;;
45338;SDS011;31071;51.478;5.710;2022-09-28T11:56:16;5.38;;;2.25;;
45338;SDS011;31071;51.478;5.710;2022-09-28T11:58:59;2.42;;;2.00;;
45338;SDS011;31071;51.478;5.710;2022-09-28T12:01:37;2.88;;;2.00;;
45338;SDS011;31071;51.478;5.710;2022-09-28T12:06:37;2.20;;;1.48;;
45338;SDS011;31071;51.478;5.710;2022-09-28T12:09:13;3.72;;;1.33;;
45338;SDS011;31071;51.478;5.710;2022-09-28T12:11:57;2.92;;;1.10;;
45338;SDS011;31071;51.478;5.710;2022-09-28T12:14:27;3.33;;;1.30;;
45338;SDS011;31071;51.478;5.710;2022-09-28T12:17:03;2.38;;;1.23;;
45338;SDS011;31071;51.478;5.710;2022-09-28T12:19:49;4.28;;;1.67;;
45338;SDS011;31071;51.478;5.710;2022-09-28T12:22:43;4.65;;;1.83;;
45338;SDS011;31071;51.478;5.710;2022-09-28T12:25:16;7.15;;;1.80;;
45338;SDS011;31071;51.478;5.710;2022-09-28T12:27:49;2.38;;;1.60;;
45338;SDS011;31071;51.478;5.710;2022-09-28T12:30:18;3.50;;;1.60;;
45338;SDS011;31071;51.478;5.710;2022-09-28T12:44:04;4.05;;;1.65;;
45338;SDS011;31071;51.478;5.710;2022-09-28T12:46:59;4.10;;;1.02;;
45338;SDS011;31071;51.478;5.710;2022-09-28T12:52:35;2.85;;;0.80;;
45338;SDS011;31071;51.478;5.710;2022-09-28T12:55:23;3.05;;;1.10;;
45338;SDS011;31071;51.478;5.710;2022-09-28T13:04:17;1.98;;;1.48;;
45338;SDS011;31071;51.478;5.710;2022-09-28T13:09:25;3.28;;;1.90;;
45338;SDS011;31071;51.478;5.710;2022-09-28T13:17:55;5.22;;;1.70;;
45338;SDS011;31071;51.478;5.710;2022-09-28T13:20:42;3.90;;;1.73;;
45338;SDS011;31071;51.478;5.710;2022-09-28T13:25:46;2.33;;;1.58;;
45338;SDS011;31071;51.478;5.710;2022-09-28T13:28:21;2.50;;;1.55;;
45338;SDS011;31071;51.478;5.710;2022-09-28T13:30:49;3.22;;;1.20;;
45338;SDS011;31071;51.478;5.710;2022-09-28T13:33:18;1.38;;;0.70;;
45338;SDS011;31071;51.478;5.710;2022-09-28T13:36:33;0.85;;;0.63;;
45338;SDS011;31071;51.478;5.710;2022-09-28T13:39:00;1.45;;;0.63;;
45338;SDS011;31071;51.478;5.710;2022-09-28T13:41:27;2.35;;;0.80;;
45338;SDS011;31071;51.478;5.710;2022-09-28T13:46:40;2.08;;;1.30;;
45338;SDS011;31071;51.478;5.710;2022-09-28T13:52:04;4.38;;;1.45;;
45338;SDS011;31071;51.478;5.710;2022-09-28T13:59:57;4.88;;;1.45;;
45338;SDS011;31071;51.478;5.710;2022-09-28T14:02:34;4.40;;;1.60;;
45338;SDS011;31071;51.478;5.710;2022-09-28T14:05:05;2.97;;;1.00;;
45338;SDS011;31071;51.478;5.710;2022-09-28T14:08:44;3.47;;;1.00;;
45338;SDS011;31071;51.478;5.710;2022-09-28T14:10:51;1.67;;;0.80;;
45338;SDS011;31071;51.478;5.710;2022-09-28T14:16:18;2.05;;;0.70;;
45338;SDS011;31071;51.478;5.710;2022-09-28T14:24:17;1.58;;;0.60;;
45338;SDS011;31071;51.478;5.710;2022-09-28T14:27:08;0.70;;;0.50;;
45338;SDS011;31071;51.478;5.710;2022-09-28T14:29:35;3.50;;;0.60;;
45338;SDS011;31071;51.478;5.710;2022-09-28T14:32:03;2.15;;;0.50;;
45338;SDS011;31071;51.478;5.710;2022-09-28T14:37:01;1.25;;;0.60;;
45338;SDS011;31071;51.478;5.710;2022-09-28T14:39:48;1.33;;;0.57;;
45338;SDS011;31071;51.478;5.710;2022-09-28T14:42:32;2.28;;;0.60;;
45338;SDS011;31071;51.478;5.710;2022-09-28T14:47:37;1.73;;;0.60;;
45338;SDS011;31071;51.478;5.710;2022-09-28T14:52:51;2.05;;;0.50;;
45338;SDS011;31071;51.478;5.710;2022-09-28T14:55:22;2.40;;;0.60;;
45338;SDS011;31071;51.478;5.710;2022-09-28T14:57:56;2.70;;;0.60;;
45338;SDS011;31071;51.478;5.710;2022-09-28T15:00:23;1.63;;;0.73;;
45338;SDS011;31071;51.478;5.710;2022-09-28T15:02:53;2.70;;;0.85;;
45338;SDS011;31071;51.478;5.710;2022-09-28T15:05:28;1.45;;;0.70;;
45338;SDS011;31071;51.478;5.710;2022-09-28T15:08:09;1.02;;;0.55;;
45338;SDS011;31071;51.478;5.710;2022-09-28T15:10:37;1.50;;;1.00;;
45338;SDS011;31071;51.478;5.710;2022-09-28T15:13:16;3.42;;;0.75;;
45338;SDS011;31071;51.478;5.710;2022-09-28T15:15:45;1.27;;;0.60;;
45338;SDS011;31071;51.478;5.710;2022-09-28T15:20:49;2.63;;;1.02;;
45338;SDS011;31071;51.478;5.710;2022-09-28T15:23:34;27.55;;;10.52;;
45338;SDS011;31071;51.478;5.710;2022-09-28T15:26:03;6.07;;;1.00;;
45338;SDS011;31071;51.478;5.710;2022-09-28T15:28:32;5.68;;;1.40;;
45338;SDS011;31071;51.478;5.710;2022-09-28T15:31:00;3.38;;;0.63;;
45338;SDS011;31071;51.478;5.710;2022-09-28T15:33:28;2.15;;;0.90;;
45338;SDS011;31071;51.478;5.710;2022-09-28T15:36:22;2.75;;;0.93;;
45338;SDS011;31071;51.478;5.710;2022-09-28T15:41:24;2.70;;;0.80;;
45338;SDS011;31071;51.478;5.710;2022-09-28T15:44:15;2.08;;;0.70;;
45338;SDS011;31071;51.478;5.710;2022-09-28T15:47:07;1.23;;;0.73;;
45338;SDS011;31071;51.478;5.710;2022-09-28T15:52:20;1.05;;;0.95;;
45338;SDS011;31071;51.478;5.710;2022-09-28T15:54:49;3.58;;;0.80;;
45338;SDS011;31071;51.478;5.710;2022-09-28T15:57:29;4.03;;;1.00;;
45338;SDS011;31071;51.478;5.710;2022-09-28T16:00:04;5.47;;;1.10;;
45338;SDS011;31071;51.478;5.710;2022-09-28T16:02:59;4.15;;;0.90;;
45338;SDS011;31071;51.478;5.710;2022-09-28T16:08:21;2.65;;;0.70;;
45338;SDS011;31071;51.478;5.710;2022-09-28T16:13:31;4.13;;;0.80;;
45338;SDS011;31071;51.478;5.710;2022-09-28T16:15:58;2.50;;;0.73;;
45338;SDS011;31071;51.478;5.710;2022-09-28T16:18:28;3.65;;;0.68;;
45338;SDS011;31071;51.478;5.710;2022-09-28T16:20:59;7.25;;;0.90;;
45338;SDS011;31071;51.478;5.710;2022-09-28T16:23:51;2.30;;;0.50;;
45338;SDS011;31071;51.478;5.710;2022-09-28T16:26:31;5.88;;;0.60;;
45338;SDS011;31071;51.478;5.710;2022-09-28T16:28:59;4.65;;;0.85;;
45338;SDS011;31071;51.478;5.710;2022-09-28T16:31:51;3.60;;;0.43;;
45338;SDS011;31071;51.478;5.710;2022-09-28T16:34:24;3.47;;;0.60;;
45338;SDS011;31071;51.478;5.710;2022-09-28T16:36:50;4.50;;;0.60;;
45338;SDS011;31071;51.478;5.710;2022-09-28T16:39:17;1.77;;;0.50;;
45338;SDS011;31071;51.478;5.710;2022-09-28T16:41:47;2.53;;;0.60;;
45338;SDS011;31071;51.478;5.710;2022-09-28T16:44:24;3.95;;;0.70;;
45338;SDS011;31071;51.478;5.710;2022-09-28T16:46:51;4.13;;;0.88;;
45338;SDS011;31071;51.478;5.710;2022-09-28T16:49:19;3.15;;;1.00;;
45338;SDS011;31071;51.478;5.710;2022-09-28T16:51:47;3.40;;;0.70;;
45338;SDS011;31071;51.478;5.710;2022-09-28T16:54:14;1.33;;;0.90;;
45338;SDS011;31071;51.478;5.710;2022-09-28T16:57:00;2.78;;;0.90;;
45338;SDS011;31071;51.478;5.710;2022-09-28T16:59:27;2.78;;;1.00;;
45338;SDS011;31071;51.478;5.710;2022-09-28T17:01:53;3.25;;;1.15;;
45338;SDS011;31071;51.478;5.710;2022-09-28T17:04:20;1.83;;;0.90;;
45338;SDS011;31071;51.478;5.710;2022-09-28T17:06:48;2.15;;;0.98;;
45338;SDS011;31071;51.478;5.710;2022-09-28T17:09:18;1.85;;;1.00;;
45338;SDS011;31071;51.478;5.710;2022-09-28T17:11:45;4.50;;;0.70;;
45338;SDS011;31071;51.478;5.710;2022-09-28T17:14:10;2.83;;;0.80;;
45338;SDS011;31071;51.478;5.710;2022-09-28T17:16:38;5.45;;;0.77;;
45338;SDS011;31071;51.478;5.710;2022-09-28T17:19:10;3.28;;;0.93;;
45338;SDS011;31071;51.478;5.710;2022-09-28T17:21:46;4.05;;;1.25;;
45338;SDS011;31071;51.478;5.710;2022-09-28T17:24:12;5.53;;;1.38;;
45338;SDS011;31071;51.478;5.710;2022-09-28T17:26:38;4.18;;;1.55;;
45338;SDS011;31071;51.478;5.710;2022-09-28T17:29:07;6.90;;;1.60;;
45338;SDS011;31071;51.478;5.710;2022-09-28T17:31:38;7.55;;;1.60;;
45338;SDS011;31071;51.478;5.710;2022-09-28T17:34:08;4.28;;;1.58;;
45338;SDS011;31071;51.478;5.710;2022-09-28T17:36:34;10.23;;;2.08;;
45338;SDS011;31071;51.478;5.710;2022-09-28T17:39:00;6.22;;;2.08;;
45338;SDS011;31071;51.478;5.710;2022-09-28T17:41:25;8.48;;;2.22;;
45338;SDS011;31071;51.478;5.710;2022-09-28T17:43:51;7.63;;;2.58;;
45338;SDS011;31071;51.478;5.710;2022-09-28T17:46:27;6.47;;;2.15;;
45338;SDS011;31071;51.478;5.710;2022-09-28T17:48:57;5.90;;;3.88;;